Flight Track Log - Related Links

Times and Time Zones

All times are in EDT time to prevent confusion due to time zone crossing. See the ASQ5941 flight status page for this flight to view local times or setup timezone preferences in your user account.

Time Position Orientation Groundspeed Altitude Reporting Facility
EDT Latitude Longitude Course Direction KTS MPH feet Rate Location/Type
Wed 06:18:42 PM 41.4803 -75.6806 289° West 231 266 6,600  Level New York Center
Wed 06:19:00 PM 41.4579 -75.9992 304° West  Level FlightAware Approximate
Wed 06:19:42 PM 41.5406 -75.7375 325° Northwest 228 262 9,000  Level New York Center
Wed 06:20:00 PM 41.5226 -76.0923 312° West  Level FlightAware Approximate
Wed 06:20:43 PM 41.6008 -75.7892 327° Northwest 248 285 10,800  Level New York Center
Wed 06:21:00 PM 41.5858 -76.1877 307° West  Level FlightAware Approximate
Wed 06:21:43 PM 41.6647 -75.8522 324° Northwest 267 307 12,300  Level New York Center
Wed 06:22:00 PM 41.6438 -76.2891 307° West  Level FlightAware Approximate
Wed 06:22:42 PM 41.6794 -75.9450 282° West 271 312 13,900  Level New York Center
Wed 06:23:00 PM 41.7008 -76.3914 307° West  Level FlightAware Approximate
Wed 06:23:42 PM 41.6869 -76.0567 275° West 292 336 14,800  Level New York Center
Wed 06:24:00 PM 41.7577 -76.4808 289° West  Level FlightAware Approximate
Wed 06:24:43 PM 41.6928 -76.2044 273° West 347 399 15,400  Level New York Center
Wed 06:25:41 PM 41.7181 -76.3372 284° West 373 429 17,200 2,085 Climbing New York Center
Wed 06:26:41 PM 41.7586 -76.4461 297° West 373 429 19,500 2,200 Climbing New York Center
Wed 06:27:41 PM 41.8117 -76.5564 303° West 360 414 21,600 2,017 Climbing New York Center
Wed 06:28:40 PM 41.8631 -76.6556 305° West 347 399 23,500 1,587 Climbing New York Center
Wed 06:29:42 PM 41.9031 -76.7678 296° West 342 394 24,800 1,095 Climbing New York Center
Wed 06:30:57 PM 41.9458 -76.9314 289° West 343 395 26,000 978 Climbing Cleveland Center
Wed 06:31:57 PM 41.9792 -77.0636 289° West 358 412 27,000 1,000 Climbing Cleveland Center
Wed 06:32:57 PM 42.0103 -77.1986 287° West 373 429 28,000 1,100 Climbing Cleveland Center
Wed 06:33:57 PM 42.0433 -77.3369 288° West 383 441 29,200 1,250 Climbing Cleveland Center
Wed 06:34:57 PM 42.0786 -77.4750 289° West 383 441 30,500 1,150 Climbing Cleveland Center
Wed 06:35:57 PM 42.1114 -77.6161 287° West 388 447 31,500 1,000 Climbing Cleveland Center
Wed 06:36:57 PM 42.1442 -77.7547 288° West 393 452 32,500 1,000 Climbing Cleveland Center
Wed 06:37:57 PM 42.1767 -77.9017 287° West 398 458 33,500 950 Climbing Cleveland Center
Wed 06:38:57 PM 42.2114 -78.0461 288° West 398 458 34,400 950 Climbing Cleveland Center
Wed 06:39:57 PM 42.2458 -78.1906 288° West 398 458 35,400 800 Climbing Cleveland Center
Wed 06:40:57 PM 42.2797 -78.3325 288° West 398 458 36,000 300 Climbing Cleveland Center
Wed 06:41:57 PM 42.3139 -78.4800 287° West 398 458 36,000  Level Cleveland Center
Wed 06:42:57 PM 42.3500 -78.6389 287° West 418 481 36,000  Level Cleveland Center
Wed 06:43:57 PM 42.3858 -78.7981 287° West 432 497 36,000  Level Cleveland Center
Wed 06:44:57 PM 42.4242 -78.9772 286° West 450 518 36,000  Level Cleveland Center
Wed 06:45:57 PM 42.4594 -79.1253 288° West 455 524 36,000  Level Cleveland Center
Wed 06:46:57 PM 42.4925 -79.2908 285° West 455 524 36,000  Level Cleveland Center
Wed 06:47:57 PM 42.5006 -79.4594 274° West 455 524 36,000  Level Cleveland Center
Wed 06:48:57 PM 42.5106 -79.6228 275° West 454 522 36,000  Level Cleveland Center
Wed 06:49:57 PM 42.5161 -79.8169 272° West 454 522 36,000  Level Cleveland Center
Wed 06:50:57 PM 42.5253 -79.9578 275° West 454 522 36,000  Level Cleveland Center
Wed 06:51:57 PM 42.5303 -80.1325 272° West 454 522 36,000  Level Cleveland Center
Wed 06:52:57 PM 42.5369 -80.2986 273° West 455 524 36,000  Level Cleveland Center
Wed 06:53:57 PM 42.5436 -80.4789 273° West 449 517 36,000  Level Cleveland Center
Wed 06:54:57 PM 42.5519 -80.6422 274° West 449 517 36,000  Level Cleveland Center
Wed 06:55:57 PM 42.5581 -80.8114 273° West 444 511 36,000  Level Cleveland Center
Wed 06:56:57 PM 42.5636 -80.9778 273° West 444 511 36,000  Level Cleveland Center
Wed 06:57:57 PM 42.5694 -81.1414 273° West 444 511 36,000  Level Cleveland Center
Wed 06:58:57 PM 42.5747 -81.3078 273° West 444 511 36,000  Level Cleveland Center
Wed 06:59:57 PM 42.5881 -81.4744 276° West 444 511 36,000  Level Cleveland Center
Wed 07:00:57 PM 42.6158 -81.6356 283° West 437 503 36,000  Level Cleveland Center
Wed 07:01:57 PM 42.6414 -81.7911 283° West 443 510 36,000  Level Cleveland Center
Wed 07:02:57 PM 42.6708 -81.9528 284° West 438 504 36,000  Level Cleveland Center
Wed 07:03:57 PM 42.6981 -82.1114 283° West 432 497 36,000  Level Cleveland Center
Wed 07:04:57 PM 42.7250 -82.2733 283° West 432 497 36,000  Level Cleveland Center
Wed 07:05:57 PM 42.7517 -82.4322 283° West 432 497 36,000  Level Cleveland Center
Wed 07:06:57 PM 42.7781 -82.5944 283° West 432 497 36,000  Level Cleveland Center
Wed 07:07:57 PM 42.8044 -82.7508 283° West 432 497 36,000  Level Cleveland Center
Wed 07:08:57 PM 42.8306 -82.9103 283° West 432 497 36,000  Level Cleveland Center
Wed 07:09:57 PM 42.8586 -83.0700 284° West 432 497 36,000 -400 Level Cleveland Center
Wed 07:10:57 PM 42.8819 -83.2297 281° West 432 497 35,200 -950 Descending Cleveland Center
Wed 07:11:57 PM 42.9075 -83.3894 282° West 432 497 34,100 -600 Descending Cleveland Center
Wed 07:12:57 PM 42.9347 -83.5525 283° West 432 497 34,000 -750 Descending Cleveland Center
Wed 07:13:57 PM 42.9597 -83.7125 282° West 432 497 32,600 -1,000 Descending Cleveland Center
Wed 07:14:57 PM 42.9581 -83.8400 269° West 432 497 32,000 -300 Descending Cleveland Center
Wed 07:15:57 PM 42.9381 -84.0347 262° West 424 488 32,000  Level Cleveland Center
Wed 07:16:57 PM 42.9225 -84.2011 263° West 434 499 32,000  Level Cleveland Center
Wed 07:17:57 PM 42.9089 -84.3619 263° West 439 505 32,000  Level Cleveland Center
Wed 07:18:37 PM 42.8961 -84.4639 260° West 442 509 32,000  Level Chicago Center
Wed 07:19:39 PM 42.8797 -84.6308 262° West 444 511 32,000  Level Chicago Center
Wed 07:20:41 PM 42.8614 -84.7983 262° West 447 514 32,000  Level Chicago Center
Wed 07:21:43 PM 42.8447 -84.9644 262° West 444 511 32,000  Level Chicago Center
Wed 07:22:45 PM 42.8272 -85.1306 262° West 444 511 32,000 -768 Level Chicago Center
Wed 07:23:48 PM 42.8050 -85.3281 261° West 441 507 30,400 -1,488 Descending Chicago Center
Wed 07:24:50 PM 42.7861 -85.4931 261° West 441 507 28,900 -1,403 Descending Chicago Center
Wed 07:25:52 PM 42.7583 -85.6564 257° West 441 507 27,500 -1,645 Descending Chicago Center
Wed 07:26:54 PM 42.7294 -85.8186 256° West 439 505 25,500 -1,984 Descending Chicago Center
Wed 07:27:56 PM 42.6992 -85.9803 256° West 438 504 23,400 -2,032 Descending Chicago Center
Wed 07:28:58 PM 42.6703 -86.1400 256° West 434 499 21,300 -1,742 Descending Chicago Center
Wed 07:30:00 PM 42.6422 -86.2931 256° West 423 487 19,800 -1,887 Descending Chicago Center
Wed 07:31:02 PM 42.6086 -86.4681 255° West 403 464 17,400 -2,177 Descending Chicago Center
Wed 07:32:04 PM 42.5825 -86.6075 256° West 381 438 15,300 -2,032 Descending Chicago Center
Wed 07:33:06 PM 42.5567 -86.7419 255° West 371 427 13,200 -1,984 Descending Chicago Center
Wed 07:34:08 PM 42.5217 -86.8717 250° West 370 426 11,200 -1,500 Descending Chicago Center
Wed 07:35:10 PM 42.4889 -86.9906 250° West 343 395 10,100 -576 Descending Chicago Center
Wed 07:36:13 PM 42.4547 -87.1069 248° West 335 386 10,000 -384 Descending Chicago Center
Wed 07:37:15 PM 42.4217 -87.2336 251° West 302 348 9,300 -532 Descending Chicago Center
Wed 07:38:17 PM 42.3947 -87.3278 249° West 277 319 8,900 -532 Descending Chicago Center
Wed 07:39:19 PM 42.3692 -87.4225 250° West 271 312 8,200 -774 Descending Chicago Center
Wed 07:40:21 PM 42.3233 -87.5028 232° Southwest 279 321 7,300 -823 Descending Chicago Center
Wed 07:41:23 PM 42.2728 -87.5728 226° Southwest 267 307 6,500 -1,210 Descending Chicago Center
Wed 07:42:25 PM 42.2153 -87.6603 228° Southwest 260 299 4,800 -1,258 Descending Chicago Center
Wed 07:43:27 PM 42.1567 -87.7189 217° Southwest 263 303 3,900 -871 Descending Chicago Center

Login

Don't have an account? Register now (free) for customized features, flight alerts, and more!